Hawaiian Chieftain — WDC8751 — position and weather

sailwx.info

Track history (hours):
 
Tides and Currents Weather Stations Pressure Air Temp Water Temp Dewpoint Dewpoint Depression Visibility Wind Speed Wind Dir Waves Ship Positions

Hawaiian Chieftain (United States)

Operated briefly as "Spirt of Larinda". When she sailed from Sausalito, California, callsign was WAA7737.

Ship's website: http://www.historicalseaport.org/HawaiianChieftain.htm

Owner: GRAYS HARBOR HISTORICAL SEAPORT AUTHORITY, ABERDEEN, WA. More information available from US FCC via Universal Licensing System and Coast Guard Vessel Documentation Center.

Last reported at 2018-Apr-04 08:57 UTC. Time now 2018-Apr-20 14:10 UTC.
Position N 38°24' W 123°26'.
Warning: this ship's position is 16 days out of date.

Length 31 m.

Type: Sailing vessel. MMSI: 367092520.

Date/timePositionNaut miles runAvg speedWind from/ knotsBaromVisibWave heightAir tempDewpointWater temp
2018-Apr-04 08:57N 38°24' W 123°26'1 2.4
2018-Apr-04 08:28N 38°23' W 123°26'3 2.3
2018-Apr-04 07:13N 38°21' W 123°23'0 1.1
2018-Apr-04 06:59N 38°21' W 123°22'1 2.1
2018-Apr-04 06:30N 38°21' W 123°21'1 2.6
2018-Apr-04 05:59N 38°19' W 123°20'2 2.8
2018-Apr-04 05:25N 38°18' W 123°20'1 2.1
2018-Apr-04 05:00N 38°17' W 123°20'1 2.4
2018-Apr-04 04:30N 38°16' W 123°19'11 3.3
2018-Apr-04 01:14N 38°06' W 123°13'12 4.6
2018-Apr-03 22:32N 37°57' W 123°02'0 4.8
2018-Apr-03 22:30N 37°57' W 123°02'3 4.4
2018-Apr-03 21:48N 37°56' W 122°58'1 4.5
2018-Apr-03 21:30N 37°55' W 122°57'20 5.2
2018-Apr-03 17:38N 37°47' W 122°34'1 5.9
2018-Apr-03 17:26N 37°48' W 122°32'3 6.1
2018-Apr-03 17:00N 37°49' W 122°29'2 4.1
2018-Apr-03 16:26N 37°51' W 122°28'0 1.0
2018-Apr-03 15:58N 37°51' W 122°29'0 0.2
2018-Apr-03 15:30N 37°51' W 122°28'0 0.0
2018-Apr-03 14:50N 37°51' W 122°28'0 0.0
2018-Apr-03 14:23N 37°51' W 122°28'0 0.1
2018-Apr-03 13:55N 37°51' W 122°28'0 0.1
2018-Apr-03 13:02N 37°51' W 122°28'0 0.1
2018-Apr-03 12:52N 37°51' W 122°28'0 0.2
2018-Apr-03 12:29N 37°51' W 122°29'0 0.2
2018-Apr-03 11:59N 37°51' W 122°28'0 0.1
2018-Apr-03 11:30N 37°51' W 122°28'0 0.1
2018-Apr-03 10:59N 37°51' W 122°28'0 0.1
2018-Apr-03 09:44N 37°51' W 122°28'0 0.2
2018-Apr-03 09:17N 37°51' W 122°28'0 0.4
2018-Apr-03 08:56N 37°51' W 122°28'0 0.0
2018-Apr-03 07:24N 37°51' W 122°28'0 0.0
2018-Apr-03 06:59N 37°51' W 122°28'0 0.0
2018-Apr-03 05:08N 37°51' W 122°28'0 0.0
2018-Apr-03 04:58N 37°51' W 122°28'0 0.0
2018-Apr-03 03:50N 37°51' W 122°28'0 0.5
2018-Apr-03 03:24N 37°51' W 122°28'0 0.4
2018-Apr-03 02:26N 37°51' W 122°28'0 0.4
2018-Apr-03 02:00N 37°51' W 122°28'  
2018-Mar-26 18:37N 37°48' W 122°17'0 0.3
2018-Mar-26 18:30N 37°48' W 122°17'0 0.3
2018-Mar-26 17:58N 37°48' W 122°17'0 0.0
2018-Mar-26 17:24N 37°48' W 122°17'0 0.3
2018-Mar-26 16:57N 37°48' W 122°17'0 0.6
2018-Mar-26 16:28N 37°48' W 122°17'0 0.1
2018-Mar-26 13:35N 37°48' W 122°17'0 0.1
2018-Mar-26 13:29N 37°48' W 122°17'0 0.0
2018-Mar-26 10:29N 37°48' W 122°17'0 0.0
2018-Mar-26 07:49N 37°48' W 122°17'0 0.2
2018-Mar-26 06:45N 37°48' W 122°17'0 0.0
2018-Mar-26 00:34N 37°48' W 122°17'0 0.5
2018-Mar-26 00:15N 37°48' W 122°17'0 0.2
2018-Mar-25 23:59N 37°48' W 122°17'2 3.1
2018-Mar-25 23:29N 37°48' W 122°19'2 3.1
2018-Mar-25 23:00N 37°47' W 122°20'0 0.4
2018-Mar-25 22:25N 37°47' W 122°20'1 1.4
2018-Mar-25 22:00N 37°48' W 122°20'3 5.0
2018-Mar-25 21:29N 37°48' W 122°17'0 0.3
2018-Mar-25 21:00N 37°48' W 122°17'0 0.0
2018-Mar-25 20:29N 37°48' W 122°17'0 0.0
2018-Mar-25 19:21N 37°48' W 122°17'0 0.1
2018-Mar-25 18:59N 37°48' W 122°17'0 0.1
2018-Mar-25 18:29N 37°48' W 122°17'0 0.0
2018-Mar-25 17:58N 37°48' W 122°17'0 0.0
2018-Mar-25 17:30N 37°48' W 122°17'0 0.1
2018-Mar-25 17:00N 37°48' W 122°17'0 0.0
2018-Mar-25 13:39N 37°48' W 122°17'0 0.6
2018-Mar-25 13:29N 37°48' W 122°17'0 0.3
2018-Mar-25 13:00N 37°48' W 122°17'0 0.4
2018-Mar-25 12:11N 37°48' W 122°17'0 0.1
2018-Mar-25 12:00N 37°48' W 122°17'0 0.1
2018-Mar-25 09:30N 37°48' W 122°17'  
Track history (hours):
 
Tides and Currents Weather Stations Pressure Air Temp Water Temp Dewpoint Dewpoint Depression Visibility Wind Speed Wind Dir Waves Ship Positions

Hawaiian Chieftain (United States)

Operated briefly as "Spirt of Larinda". When she sailed from Sausalito, California, callsign was WAA7737.

Ship's website: http://www.historicalseaport.org/HawaiianChieftain.htm

Owner: GRAYS HARBOR HISTORICAL SEAPORT AUTHORITY, ABERDEEN, WA. More information available from US FCC via Universal Licensing System and Coast Guard Vessel Documentation Center.

Last reported at 2018-Apr-04 08:57 UTC. Time now 2018-Apr-20 14:10 UTC.
Position N 38°24' W 123°26'.
Warning: this ship's position is 16 days out of date.

Length 31 m.

Type: Sailing vessel. MMSI: 367092520.

Date/timePositionNaut miles runAvg speedWind from/ knotsBaromVisibWave heightAir tempDewpointWater temp
2018-Apr-04 08:57N 38°24' W 123°26'1 2.4
2018-Apr-04 08:28N 38°23' W 123°26'3 2.3
2018-Apr-04 07:13N 38°21' W 123°23'0 1.1
2018-Apr-04 06:59N 38°21' W 123°22'1 2.1
2018-Apr-04 06:30N 38°21' W 123°21'1 2.6
2018-Apr-04 05:59N 38°19' W 123°20'2 2.8
2018-Apr-04 05:25N 38°18' W 123°20'1 2.1
2018-Apr-04 05:00N 38°17' W 123°20'1 2.4
2018-Apr-04 04:30N 38°16' W 123°19'11 3.3
2018-Apr-04 01:14N 38°06' W 123°13'12 4.6
2018-Apr-03 22:32N 37°57' W 123°02'0 4.8
2018-Apr-03 22:30N 37°57' W 123°02'3 4.4
2018-Apr-03 21:48N 37°56' W 122°58'1 4.5
2018-Apr-03 21:30N 37°55' W 122°57'20 5.2
2018-Apr-03 17:38N 37°47' W 122°34'1 5.9
2018-Apr-03 17:26N 37°48' W 122°32'3 6.1
2018-Apr-03 17:00N 37°49' W 122°29'2 4.1
2018-Apr-03 16:26N 37°51' W 122°28'0 1.0
2018-Apr-03 15:58N 37°51' W 122°29'0 0.2
2018-Apr-03 15:30N 37°51' W 122°28'0 0.0
2018-Apr-03 14:50N 37°51' W 122°28'0 0.0
2018-Apr-03 14:23N 37°51' W 122°28'0 0.1
2018-Apr-03 13:55N 37°51' W 122°28'0 0.1
2018-Apr-03 13:02N 37°51' W 122°28'0 0.1
2018-Apr-03 12:52N 37°51' W 122°28'0 0.2
2018-Apr-03 12:29N 37°51' W 122°29'0 0.2
2018-Apr-03 11:59N 37°51' W 122°28'0 0.1
2018-Apr-03 11:30N 37°51' W 122°28'0 0.1
2018-Apr-03 10:59N 37°51' W 122°28'0 0.1
2018-Apr-03 09:44N 37°51' W 122°28'0 0.2
2018-Apr-03 09:17N 37°51' W 122°28'0 0.4
2018-Apr-03 08:56N 37°51' W 122°28'0 0.0
2018-Apr-03 07:24N 37°51' W 122°28'0 0.0
2018-Apr-03 06:59N 37°51' W 122°28'0 0.0
2018-Apr-03 05:08N 37°51' W 122°28'0 0.0
2018-Apr-03 04:58N 37°51' W 122°28'0 0.0
2018-Apr-03 03:50N 37°51' W 122°28'0 0.5
2018-Apr-03 03:24N 37°51' W 122°28'0 0.4
2018-Apr-03 02:26N 37°51' W 122°28'0 0.4
2018-Apr-03 02:00N 37°51' W 122°28'  
2018-Mar-26 18:37N 37°48' W 122°17'0 0.3
2018-Mar-26 18:30N 37°48' W 122°17'0 0.3
2018-Mar-26 17:58N 37°48' W 122°17'0 0.0
2018-Mar-26 17:24N 37°48' W 122°17'0 0.3
2018-Mar-26 16:57N 37°48' W 122°17'0 0.6
2018-Mar-26 16:28N 37°48' W 122°17'0 0.1
2018-Mar-26 13:35N 37°48' W 122°17'0 0.1
2018-Mar-26 13:29N 37°48' W 122°17'0 0.0
2018-Mar-26 10:29N 37°48' W 122°17'0 0.0
2018-Mar-26 07:49N 37°48' W 122°17'0 0.2
2018-Mar-26 06:45N 37°48' W 122°17'0 0.0
2018-Mar-26 00:34N 37°48' W 122°17'0 0.5
2018-Mar-26 00:15N 37°48' W 122°17'0 0.2
2018-Mar-25 23:59N 37°48' W 122°17'2 3.1
2018-Mar-25 23:29N 37°48' W 122°19'2 3.1
2018-Mar-25 23:00N 37°47' W 122°20'0 0.4
2018-Mar-25 22:25N 37°47' W 122°20'1 1.4
2018-Mar-25 22:00N 37°48' W 122°20'3 5.0
2018-Mar-25 21:29N 37°48' W 122°17'0 0.3
2018-Mar-25 21:00N 37°48' W 122°17'0 0.0
2018-Mar-25 20:29N 37°48' W 122°17'0 0.0
2018-Mar-25 19:21N 37°48' W 122°17'0 0.1
2018-Mar-25 18:59N 37°48' W 122°17'0 0.1
2018-Mar-25 18:29N 37°48' W 122°17'0 0.0
2018-Mar-25 17:58N 37°48' W 122°17'0 0.0
2018-Mar-25 17:30N 37°48' W 122°17'0 0.1
2018-Mar-25 17:00N 37°48' W 122°17'0 0.0
2018-Mar-25 13:39N 37°48' W 122°17'0 0.6
2018-Mar-25 13:29N 37°48' W 122°17'0 0.3
2018-Mar-25 13:00N 37°48' W 122°17'0 0.4
2018-Mar-25 12:11N 37°48' W 122°17'0 0.1
2018-Mar-25 12:00N 37°48' W 122°17'0 0.1
2018-Mar-25 09:30N 37°48' W 122°17'  

Dump ship's entire track history